Map

Track Data

SID SEASON NUMBER BASIN SUBBASIN NAME ISO_TIME NATURE LAT LON WMO_WIND WMO_PRES WMO_AGENCY TRACK_TYPE DIST2LAND LANDFALL IFLAG USA_AGENCY USA_ATCF_ID USA_LAT USA_LON USA_RECORD USA_STATUS USA_WIND USA_PRES USA_SSHS USA_R34_NE USA_R34_SE USA_R34_SW USA_R34_NW USA_R50_NE USA_R50_SE USA_R50_SW USA_R50_NW USA_R64_NE USA_R64_SE USA_R64_SW USA_R64_NW USA_POCI USA_ROCI USA_RMW USA_EYE TOKYO_LAT TOKYO_LON TOKYO_GRADE TOKYO_WIND TOKYO_PRES TOKYO_R50_DIR TOKYO_R50_LONG TOKYO_R50_SHORT TOKYO_R30_DIR TOKYO_R30_LONG TOKYO_R30_SHORT TOKYO_LAND CMA_LAT CMA_LON CMA_CAT CMA_WIND CMA_PRES HKO_LAT HKO_LON HKO_CAT HKO_WIND HKO_PRES NEWDELHI_LAT NEWDELHI_LON NEWDELHI_GRADE NEWDELHI_WIND NEWDELHI_PRES NEWDELHI_CI NEWDELHI_DP NEWDELHI_POCI REUNION_LAT REUNION_LON REUNION_TYPE REUNION_WIND REUNION_PRES REUNION_TNUM REUNION_CI REUNION_RMW REUNION_R34_NE REUNION_R34_SE REUNION_R34_SW REUNION_R34_NW REUNION_R50_NE REUNION_R50_SE REUNION_R50_SW REUNION_R50_NW REUNION_R64_NE REUNION_R64_SE REUNION_R64_SW REUNION_R64_NW BOM_LAT BOM_LON BOM_TYPE BOM_WIND BOM_PRES BOM_TNUM BOM_CI BOM_RMW BOM_R34_NE BOM_R34_SE BOM_R34_SW BOM_R34_NW BOM_R50_NE BOM_R50_SE BOM_R50_SW BOM_R50_NW BOM_R64_NE BOM_R64_SE BOM_R64_SW BOM_R64_NW BOM_ROCI BOM_POCI BOM_EYE BOM_POS_METHOD BOM_PRES_METHOD NADI_LAT NADI_LON NADI_CAT NADI_WIND NADI_PRES WELLINGTON_LAT WELLINGTON_LON WELLINGTON_WIND WELLINGTON_PRES DS824_LAT DS824_LON DS824_STAGE DS824_WIND DS824_PRES TD9636_LAT TD9636_LON TD9636_STAGE TD9636_WIND TD9636_PRES TD9635_LAT TD9635_LON TD9635_WIND TD9635_PRES TD9635_ROCI NEUMANN_LAT NEUMANN_LON NEUMANN_CLASS NEUMANN_WIND NEUMANN_PRES MLC_LAT MLC_LON MLC_CLASS MLC_WIND MLC_PRES USA_GUST BOM_GUST BOM_GUST_PER REUNION_GUST REUNION_GUST_PER USA_SEAHGT USA_SEARAD_NE USA_SEARAD_SE USA_SEARAD_SW USA_SEARAD_NW STORM_SPEED STORM_DIR
1993252N11265 1993 67 EP MM LIDIA 1993-09-08 12:00:00 TS 10.6000 -94.8000 25 1007 hurdat_epa main 518 492 O_____________ hurdat_epa EP131993 10.6000 -94.8000 TD 25 1007 -1 7 352
1993252N11265 1993 67 EP MM LIDIA 1993-09-08 15:00:00 TS 10.9675 -94.8525 main 489 469 P_____________ EP131993 10.9675 -94.8525 TD 27 1006 -1 7 344
1993252N11265 1993 67 EP MM LIDIA 1993-09-08 18:00:00 TS 11.3000 -95.0000 30 1005 hurdat_epa main 469 461 O_____________ hurdat_epa EP131993 11.3000 -95.0000 TD 30 1005 -1 8 324
1993252N11265 1993 67 EP MM LIDIA 1993-09-08 21:00:00 TS 11.5725 -95.3050 main 467 436 P_____________ EP131993 11.5725 -95.3050 TD 35 1004 0 9 306
1993252N11265 1993 67 EP MM LIDIA 1993-09-09 00:00:00 TS 11.8000 -95.7000 40 1003 hurdat_epa main 436 406 O_____________ hurdat_epa EP131993 11.8000 -95.7000 TS 40 1003 0 9 299
1993252N11265 1993 67 EP MM LIDIA 1993-09-09 03:00:00 TS 12.0075 -96.0926 main 406 380 P_____________ EP131993 12.0075 -96.0926 TS 40 1002 0 9 297
1993252N11265 1993 67 EP MM LIDIA 1993-09-09 06:00:00 TS 12.2000 -96.5000 40 1002 hurdat_epa main 380 358 O_____________ hurdat_epa EP131993 12.2000 -96.5000 TS 40 1002 0 9 296
1993252N11265 1993 67 EP MM LIDIA 1993-09-09 09:00:00 TS 12.3999 -96.9001 main 359 342 P_____________ EP131993 12.3999 -96.9001 TS 40 1002 0 9 297
1993252N11265 1993 67 EP MM LIDIA 1993-09-09 12:00:00 TS 12.6000 -97.3000 40 1002 hurdat_epa main 344 331 O_____________ hurdat_epa EP131993 12.6000 -97.3000 TS 40 1002 0 9 297
1993252N11265 1993 67 EP MM LIDIA 1993-09-09 15:00:00 TS 12.7924 -97.6852 main 335 327 P_____________ EP131993 12.7924 -97.6852 TS 42 1000 0 9 297
1993252N11265 1993 67 EP MM LIDIA 1993-09-09 18:00:00 TS 13.0000 -98.1000 45 999 hurdat_epa main 332 320 O_____________ hurdat_epa EP131993 13.0000 -98.1000 TS 45 999 0 10 297
1993252N11265 1993 67 EP MM LIDIA 1993-09-09 21:00:00 TS 13.2350 -98.5851 main 325 308 P_____________ EP131993 13.2350 -98.5851 TS 50 996 0 11 297
1993252N11265 1993 67 EP MM LIDIA 1993-09-10 00:00:00 TS 13.5000 -99.1000 55 993 hurdat_epa main 312 296 O_____________ hurdat_epa EP131993 13.5000 -99.1000 TS 55 993 0 11 299
1993252N11265 1993 67 EP MM LIDIA 1993-09-10 03:00:00 TS 13.7848 -99.5852 main 299 288 P_____________ EP131993 13.7848 -99.5852 TS 62 989 0 11 302
1993252N11265 1993 67 EP MM LIDIA 1993-09-10 06:00:00 TS 14.1000 -100.100 70 985 hurdat_epa main 294 271 O_____________ hurdat_epa EP131993 14.1000 -100.100 HU 70 985 1 12 302
1993252N11265 1993 67 EP MM LIDIA 1993-09-10 09:00:00 TS 14.4348 -100.663 main 278 263 P_____________ EP131993 14.4348 -100.663 HU 75 981 1 14 301
1993252N11265 1993 67 EP MM LIDIA 1993-09-10 12:00:00 TS 14.8000 -101.300 80 977 hurdat_epa main 271 253 O_____________ hurdat_epa EP131993 14.8000 -101.300 HU 80 977 1 15 300
1993252N11265 1993 67 EP MM LIDIA 1993-09-10 15:00:00 TS 15.2075 -102.035 main 253 247 P_____________ EP131993 15.2075 -102.035 HU 85 972 2 17 299
1993252N11265 1993 67 EP MM LIDIA 1993-09-10 18:00:00 TS 15.6000 -102.800 90 968 hurdat_epa main 262 249 O_____________ hurdat_epa EP131993 15.6000 -102.800 HU 90 968 2 16 297
1993252N11265 1993 67 EP MM LIDIA 1993-09-10 21:00:00 TS 15.9223 -103.523 main 253 243 P_____________ EP131993 15.9223 -103.523 HU 102 958 3 15 294
1993252N11265 1993 67 EP MM LIDIA 1993-09-11 00:00:00 TS 16.2000 -104.200 115 948 hurdat_epa main 246 239 O_____________ hurdat_epa EP131993 16.2000 -104.200 HU 115 948 4 13 292
1993252N11265 1993 67 EP MM LIDIA 1993-09-11 03:00:00 TS 16.4347 -104.815 main 253 250 P_____________ EP131993 16.4347 -104.815 HU 122 939 4 13 293
1993252N11265 1993 67 EP MM LIDIA 1993-09-11 06:00:00 TS 16.7000 -105.400 130 930 hurdat_epa main 269 266 O_____________ hurdat_epa EP131993 16.7000 -105.400 HU 130 930 4 13 300
1993252N11265 1993 67 EP MM LIDIA 1993-09-11 09:00:00 TS 17.0850 -106.015 main 266 261 P_____________ EP131993 17.0850 -106.015 HU 127 934 4 14 305
1993252N11265 1993 67 EP MM LIDIA 1993-09-11 12:00:00 TS 17.5000 -106.600 125 938 hurdat_epa main 268 268 O_____________ hurdat_epa EP131993 17.5000 -106.600 HU 125 938 4 13 306
1993252N11265 1993 67 EP MM LIDIA 1993-09-11 15:00:00 TS 17.8498 -107.123 main 284 283 P_____________ EP131993 17.8498 -107.123 HU 120 943 4 12 306
1993252N11265 1993 67 EP MM LIDIA 1993-09-11 18:00:00 TS 18.2000 -107.600 115 948 hurdat_epa main 294 294 O_____________ hurdat_epa EP131993 18.2000 -107.600 HU 115 948 4 12 311
1993252N11265 1993 67 EP MM LIDIA 1993-09-11 21:00:00 TS 18.6149 -108.065 main 314 309 P_____________ EP131993 18.6149 -108.065 HU 112 951 3 12 313
1993252N11265 1993 67 EP MM LIDIA 1993-09-12 00:00:00 TS 19.0000 -108.500 110 955 hurdat_epa main 332 332 O_____________ hurdat_epa EP131993 19.0000 -108.500 HU 110 955 3 10 307
1993252N11265 1993 67 EP MM LIDIA 1993-09-12 03:00:00 TS 19.2425 -108.930 main 360 360 P_____________ EP131993 19.2425 -108.930 HU 105 957 3 9 304
1993252N11265 1993 67 EP MM LIDIA 1993-09-12 06:00:00 TS 19.5000 -109.300 100 960 hurdat_epa main 383 336 O_____________ hurdat_epa EP131993 19.5000 -109.300 HU 100 960 3 9 315
1993252N11265 1993 67 EP MM LIDIA 1993-09-12 09:00:00 TS 19.8975 -109.632 main 336 279 P_____________ EP131993 19.8975 -109.632 HU 95 965 2 10 332
1993252N11265 1993 67 EP MM LIDIA 1993-09-12 12:00:00 TS 20.4000 -109.800 90 970 hurdat_epa main 279 212 O_____________ hurdat_epa EP131993 20.4000 -109.800 HU 90 970 2 11 354
1993252N11265 1993 67 EP MM LIDIA 1993-09-12 15:00:00 TS 20.9998 -109.748 main 212 148 P_____________ EP131993 20.9998 -109.748 HU 87 972 2 12 13
1993252N11265 1993 67 EP MM LIDIA 1993-09-12 18:00:00 TS 21.6000 -109.500 85 975 hurdat_epa main 148 117 O_____________ hurdat_epa EP131993 21.6000 -109.500 HU 85 975 2 12 28
1993252N11265 1993 67 EP MM LIDIA 1993-09-12 21:00:00 TS 22.0351 -109.145 main 123 113 P_____________ EP131993 22.0351 -109.145 HU 85 975 2 12 39
1993252N11265 1993 67 EP MM LIDIA 1993-09-13 00:00:00 TS 22.5000 -108.700 85 975 hurdat_epa main 113 105 O_____________ hurdat_epa EP131993 22.5000 -108.700 HU 85 975 2 14 35
1993252N11265 1993 67 EP MM LIDIA 1993-09-13 03:00:00 TS 23.1663 -108.271 main 114 52 P_____________ EP131993 23.1909 -108.257 HU 85 975 2 16 31
1993252N11265 1993 67 EP MM LIDIA 1993-09-13 06:00:00 TS 23.9000 -107.800 85 975 hurdat_epa main 52 0 O_____________ hurdat_epa EP131993 23.9000 -107.800 HU 85 975 2 17 32
1993252N11265 1993 67 EP MM LIDIA 1993-09-13 08:00:00 TS 24.3730 -107.460 85 975 hurdat_epa main 0 0 O_____________ hurdat_epa EP131993 24.3000 -107.500 L HU 85 975 2 19 33
1993252N11265 1993 67 EP MM LIDIA 1993-09-13 09:00:00 TS 24.7027 -107.224 main 0 0 P_____________ EP131993 24.6269 -107.266 HU 75 980 1 28 35
1993252N11265 1993 67 EP MM LIDIA 1993-09-13 12:00:00 TS 25.9000 -106.300 45 998 hurdat_epa main 0 0 O_____________ hurdat_epa EP131993 25.9000 -106.300 TS 45 998 0 28 37
1993252N11265 1993 67 EP MM LIDIA 1993-09-13 15:00:00 TS 26.9510 -105.360 main 0 0 P_____________ EP131993 26.9626 -105.352 TS 40 999 0 27 43
1993252N11265 1993 67 EP MM LIDIA 1993-09-13 18:00:00 TS 27.9000 -104.200 35 1001 hurdat_epa main 0 0 O_____________ hurdat_epa EP131993 27.9000 -104.200 TS 35 1001 0 30 53
1993252N11265 1993 67 EP MM LIDIA 1993-09-13 21:00:00 TS 28.7773 -102.631 main 0 0 P_____________ EP131993 28.7773 -102.631 TS 32 1002 -1 32 60
1993252N11265 1993 67 EP MM LIDIA 1993-09-14 00:00:00 TS 29.5000 -101.000 30 1003 hurdat_epa main 0 0 O_____________ hurdat_epa EP131993 29.5000 -101.000 TD 30 1003 -1 29 64
1993252N11265 1993 67 EP MM LIDIA 1993-09-14 03:00:00 TS 30.0494 -99.6525 main 0 0 P_____________ EP131993 30.0494 -99.6525 TD 27 1004 -1 24 65
1993252N11265 1993 67 EP MM LIDIA 1993-09-14 06:00:00 TS 30.5000 -98.5000 25 1006 hurdat_epa main 0 O_____________ hurdat_epa EP131993 30.5000 -98.5000 TD 25 1006 -1 22 66

About IBTrACS Database

This database is a web-friendly format of International Best Track Archive for Climate Stewardship (IBTrACS), a global best track data archive curated by NOAA dating back to 1842.

Updated: 2021-12-03